Time;durP1;ratioP1;P1;durP2;ratioP2;P2;SDS_P1;SDS_P2;PMS_P1;PMS_P2;Temp;Humidity;BMP_temperature;BMP_pressure;BME280_temperature;BME280_humidity;BME280_pressure;Samples;Min_cycle;Max_cycle;Signal;HPM_P1;HPM_P2
2023/10/17 00:02:50;;;;;;;;;;;;;;;1.90;100.00;99377.05;135423;1273;22522;-81
2023/10/17 00:05:54;;;;;;;;;;;;;;;1.86;100.00;99374.55;135454;1273;22507;-81
2023/10/17 00:08:57;;;;;;;;;;;;;;;1.78;100.00;99373.09;135582;1273;22650;-82
2023/10/17 00:12:09;;;;;;;;;;;;;;;1.75;100.00;99372.60;135630;1272;22533;-83
2023/10/17 00:15:27;;;;;;;;;;;;;;;1.77;100.00;99369.42;135625;1273;25253;-81
2023/10/17 00:18:31;;;;;;;;;;;;;;;1.73;100.00;99369.73;135611;1273;22527;-81
2023/10/17 00:21:33;;;;;;;;;;;;;;;1.68;100.00;99373.02;136089;1273;22510;-82
2023/10/17 00:24:36;;;;;;;;;;;;;;;1.65;100.00;99375.23;136561;1273;22538;-82
2023/10/17 00:27:39;;;;;;;;;;;;;;;1.63;100.00;99376.21;136625;1273;22452;-80
2023/10/17 00:30:42;;;;;;;;;;;;;;;1.61;100.00;99375.23;136741;1273;22527;-80
2023/10/17 00:33:49;;;;;;;;;;;;;;;1.58;99.72;99372.48;136482;1273;22520;-80
2023/10/17 00:36:59;;;;;;;;;;;;;;;1.54;99.39;99374.66;135908;1273;22511;-80
2023/10/17 00:40:13;;;;;;;;;;;;;;;1.53;99.47;99375.61;135877;1273;22507;-83
2023/10/17 00:43:16;;;;;;;;;;;;;;;1.49;99.26;99375.94;135712;1269;22523;-84
2023/10/17 00:46:18;;;;;;;;;;;;;;;1.49;99.82;99376.77;135660;1273;22511;-82
2023/10/17 00:49:23;;;;;;;;;;;;;;;1.47;99.86;99375.11;135712;1273;22502;-83
2023/10/17 00:52:25;;;;;;;;;;;;;;;1.43;100.00;99374.73;135704;1273;24172;-81
2023/10/17 00:55:28;;;;;;;;;;;;;;;1.41;100.00;99376.15;135597;1273;23218;-81
2023/10/17 00:58:30;;;;;;;;;;;;;;;1.39;100.00;99376.53;135604;1273;24196;-84
2023/10/17 01:01:33;;;;;;;;;;;;;;;1.34;100.00;99378.31;135681;1273;22515;-84
2023/10/17 01:04:40;;;;;;;;;;;;;;;1.33;100.00;99375.34;135732;1273;22519;-83
2023/10/17 01:07:43;;;;;;;;;;;;;;;1.31;100.00;99373.53;135719;1273;22514;-84
2023/10/17 01:10:47;;;;;;;;;;;;;;;1.30;100.00;99372.62;135698;1273;22526;-83
2023/10/17 01:13:50;;;;;;;;;;;;;;;1.27;100.00;99372.13;135789;1273;22518;-83
2023/10/17 01:16:53;;;;;;;;;;;;;;;1.21;100.00;99372.48;135770;1273;22516;-80
2023/10/17 01:19:57;;;;;;;;;;;;;;;1.15;100.00;99368.71;135800;1273;25382;-82
2023/10/17 01:23:00;;;;;;;;;;;;;;;1.13;100.00;99367.88;135791;1272;22515;-83
2023/10/17 01:26:05;;;;;;;;;;;;;;;1.10;100.00;99367.05;135764;1273;22504;-81
2023/10/17 01:29:11;;;;;;;;;;;;;;;1.07;100.00;99372.69;135745;1273;22512;-81
2023/10/17 01:32:15;;;;;;;;;;;;;;;1.06;100.00;99376.02;135720;1273;22518;-82
2023/10/17 01:35:19;;;;;;;;;;;;;;;1.00;100.00;99379.95;135575;1273;22518;-83
2023/10/17 01:38:25;;;;;;;;;;;;;;;0.90;100.00;99378.06;135656;1273;22518;-83
2023/10/17 01:41:28;;;;;;;;;;;;;;;0.87;100.00;99374.45;135688;1273;22548;-81
2023/10/17 01:44:31;;;;;;;;;;;;;;;0.84;100.00;99374.73;135736;1273;22525;-80
2023/10/17 01:47:36;;;;;;;;;;;;;;;0.76;99.83;99380.43;135648;1273;22537;-83
2023/10/17 01:50:39;;;;;;;;;;;;;;;0.71;99.77;99382.38;135682;1273;22514;-83
2023/10/17 01:53:43;;;;;;;;;;;;;;;0.70;100.00;99385.89;135635;1273;22549;-83
2023/10/17 01:56:48;;;;;;;;;;;;;;;0.67;100.00;99386.02;135630;1273;22507;-82
2023/10/17 01:59:51;;;;;;;;;;;;;;;0.67;100.00;99389.28;135568;1273;22518;-80
2023/10/17 02:02:54;;;;;;;;;;;;;;;0.65;100.00;99391.42;135609;1273;24906;-82
2023/10/17 02:05:57;;;;;;;;;;;;;;;0.63;100.00;99393.04;135773;1273;22533;-81
2023/10/17 02:08:59;;;;;;;;;;;;;;;0.61;100.00;99394.95;135803;1273;22510;-81
2023/10/17 02:12:02;;;;;;;;;;;;;;;0.55;100.00;99395.66;135405;1273;22507;-81
2023/10/17 02:15:06;;;;;;;;;;;;;;;0.50;100.00;99399.29;135438;1273;22587;-81
2023/10/17 02:18:15;;;;;;;;;;;;;;;0.47;100.00;99396.71;135410;1273;22640;-81
2023/10/17 02:21:20;;;;;;;;;;;;;;;0.46;100.00;99398.65;135462;1273;23585;-80
2023/10/17 02:24:23;;;;;;;;;;;;;;;0.45;100.00;99398.66;135470;1273;22520;-81
2023/10/17 02:27:27;;;;;;;;;;;;;;;0.44;100.00;99405.27;135457;1273;22885;-81
2023/10/17 02:30:29;;;;;;;;;;;;;;;0.38;100.00;99405.39;135364;1273;25868;-80
2023/10/17 02:33:32;;;;;;;;;;;;;;;0.35;100.00;99410.14;135534;1273;22618;-81
2023/10/17 02:36:34;;;;;;;;;;;;;;;0.30;100.00;99407.83;135422;1273;24174;-82
2023/10/17 02:39:37;;;;;;;;;;;;;;;0.29;100.00;99410.00;135474;1273;22533;-87
2023/10/17 02:42:40;;;;;;;;;;;;;;;0.33;100.00;99411.25;135599;1273;22524;-84
2023/10/17 02:45:42;;;;;;;;;;;;;;;0.33;100.00;99415.50;135726;1273;22523;-85
2023/10/17 02:48:45;;;;;;;;;;;;;;;0.32;100.00;99414.27;135644;1273;24183;-83
2023/10/17 02:51:48;;;;;;;;;;;;;;;0.31;100.00;99419.52;135713;1273;22511;-83
2023/10/17 02:54:57;;;;;;;;;;;;;;;0.27;100.00;99423.19;135751;1273;22614;-84
2023/10/17 02:57:59;;;;;;;;;;;;;;;0.25;100.00;99425.81;135712;1273;22515;-83
2023/10/17 03:01:02;;;;;;;;;;;;;;;0.22;100.00;99424.27;135703;1273;25204;-82
2023/10/17 03:04:08;;;;;;;;;;;;;;;0.22;100.00;99425.65;135663;1273;26014;-82
2023/10/17 03:07:11;;;;;;;;;;;;;;;0.23;100.00;99424.15;135721;1273;22598;-81
2023/10/17 03:10:20;;;;;;;;;;;;;;;0.21;100.00;99424.92;135852;1269;22552;-82
2023/10/17 03:13:39;;;;;;;;;;;;;;;0.19;100.00;99424.73;136033;1273;22531;-79
2023/10/17 03:16:43;;;;;;;;;;;;;;;0.19;100.00;99427.70;136304;1273;22486;-78
2023/10/17 03:19:46;;;;;;;;;;;;;;;0.21;100.00;99426.08;136391;1273;22520;-79
2023/10/17 03:22:50;;;;;;;;;;;;;;;0.21;100.00;99428.14;136297;1273;22530;-79
2023/10/17 03:26:00;;;;;;;;;;;;;;;0.18;100.00;99429.16;135834;1273;22528;-79
2023/10/17 03:29:11;;;;;;;;;;;;;;;0.20;100.00;99435.61;135541;1273;23006;-79
2023/10/17 03:32:15;;;;;;;;;;;;;;;0.21;100.00;99437.09;135415;1273;24957;-79
2023/10/17 03:35:20;;;;;;;;;;;;;;;0.23;100.00;99436.83;135563;1273;25005;-80
2023/10/17 03:38:26;;;;;;;;;;;;;;;0.34;100.00;99436.30;135409;1273;24139;-80
2023/10/17 03:41:29;;;;;;;;;;;;;;;0.59;100.00;99433.56;135316;1259;24891;-79
2023/10/17 03:44:38;;;;;;;;;;;;;;;0.69;100.00;99432.10;135219;1273;24225;-78
2023/10/17 03:47:42;;;;;;;;;;;;;;;0.61;100.00;99435.23;135200;1273;23000;-78
2023/10/17 03:50:58;;;;;;;;;;;;;;;0.51;100.00;99441.61;135320;1273;24196;-78
2023/10/17 03:54:07;;;;;;;;;;;;;;;0.44;100.00;99440.21;135287;1273;22511;-78
2023/10/17 03:57:15;;;;;;;;;;;;;;;0.36;100.00;99441.25;135250;1273;22605;-78
2023/10/17 04:00:25;;;;;;;;;;;;;;;0.33;100.00;99441.55;135276;1273;23603;-80
2023/10/17 04:03:30;;;;;;;;;;;;;;;0.36;100.00;99443.46;135328;1273;22539;-80
2023/10/17 04:06:36;;;;;;;;;;;;;;;0.35;100.00;99440.64;135422;1273;22498;-79
2023/10/17 04:09:52;;;;;;;;;;;;;;;0.35;100.00;99441.12;135296;1273;24226;-79
2023/10/17 04:13:13;;;;;;;;;;;;;;;0.33;100.00;99437.98;135249;1273;22860;-80
2023/10/17 04:16:21;;;;;;;;;;;;;;;0.24;100.00;99437.44;135279;1273;22576;-77
2023/10/17 04:19:24;;;;;;;;;;;;;;;0.21;100.00;99439.62;135221;1273;23191;-80
2023/10/17 04:22:29;;;;;;;;;;;;;;;0.15;100.00;99439.06;135096;1273;24346;-79
2023/10/17 04:25:34;;;;;;;;;;;;;;;0.12;100.00;99439.70;134961;1273;23420;-79
2023/10/17 04:28:41;;;;;;;;;;;;;;;0.04;100.00;99443.87;134828;1273;23250;-78
2023/10/17 04:31:44;;;;;;;;;;;;;;;-0.04;100.00;99442.83;135065;1273;25041;-78
2023/10/17 04:34:46;;;;;;;;;;;;;;;-0.11;100.00;99443.58;135150;1273;22507;-79
2023/10/17 04:38:16;;;;;;;;;;;;;;;-0.13;100.00;99441.08;135223;1273;22507;-79
2023/10/17 04:41:30;;;;;;;;;;;;;;;-0.14;100.00;99441.33;135118;1273;22628;-79
2023/10/17 04:44:36;;;;;;;;;;;;;;;-0.16;100.00;99439.33;135101;1273;22526;-81
2023/10/17 04:47:39;;;;;;;;;;;;;;;-0.15;100.00;99441.61;135293;1273;23061;-80
2023/10/17 04:50:56;;;;;;;;;;;;;;;-0.12;100.00;99442.11;135192;1273;23562;-79
2023/10/17 04:54:08;;;;;;;;;;;;;;;-0.10;100.00;99440.23;135115;1263;25003;-80
2023/10/17 04:57:15;;;;;;;;;;;;;;;-0.11;100.00;99441.02;135238;1273;22558;-79
2023/10/17 05:00:25;;;;;;;;;;;;;;;-0.14;100.00;99442.88;135281;1273;23071;-78
2023/10/17 05:03:32;;;;;;;;;;;;;;;-0.13;100.00;99445.86;135276;1273;22670;-79
2023/10/17 06:16:52;;;;;;;;;;;;;;;1.41;100.00;99505.13;135084;1273;22611;-77
2023/10/17 06:19:58;;;;;;;;;;;;;;;1.62;100.00;99509.77;135175;1273;22511;-79
2023/10/17 06:33:23;;;;;;;;;;;;;;;2.10;100.00;99517.81;135968;1278;22658;-78
2023/10/17 06:36:27;;;;;;;;;;;;;;;2.26;100.00;99519.76;134528;1278;25215;-80
2023/10/17 06:39:37;;;;;;;;;;;;;;;2.37;100.00;99520.37;134473;1278;22544;-81
2023/10/17 06:42:40;;;;;;;;;;;;;;;2.48;100.00;99529.06;135564;1278;22615;-81
2023/10/17 06:45:51;;;;;;;;;;;;;;;2.60;100.00;99527.98;134560;1278;22924;-80
2023/10/17 06:48:57;;;;;;;;;;;;;;;2.74;100.00;99526.02;135409;1278;22557;-81
2023/10/17 06:52:18;;;;;;;;;;;;;;;2.87;100.00;99522.75;135828;1278;22538;-80
2023/10/17 06:55:21;;;;;;;;;;;;;;;2.98;100.00;99522.80;134452;1266;23700;-83
2023/10/17 06:58:27;;;;;;;;;;;;;;;3.10;100.00;99515.88;135935;1278;22541;-81
2023/10/17 07:01:33;;;;;;;;;;;;;;;3.28;100.00;99517.98;134526;1273;22498;-81
2023/10/17 07:04:37;;;;;;;;;;;;;;;3.52;100.00;99517.71;135002;1273;24399;-81
2023/10/17 07:07:40;;;;;;;;;;;;;;;3.74;100.00;99517.44;134941;1273;25338;-80
2023/10/17 07:10:58;;;;;;;;;;;;;;;3.98;100.00;99517.56;136441;1273;22928;-80
2023/10/17 07:14:23;;;;;;;;;;;;;;;4.26;100.00;99519.26;135162;1273;24944;-81
2023/10/17 07:17:31;;;;;;;;;;;;;;;4.59;100.00;99526.55;135272;1273;26038;-80
2023/10/17 07:21:14;;;;;;;;;;;;;;;4.86;100.00;99527.09;135112;1273;22531;-79
2023/10/17 07:24:13;;;;;;;;;;;;;;;5.18;100.00;99528.02;135013;1273;22528;-80
2023/10/17 07:27:26;;;;;;;;;;;;;;;5.40;100.00;99525.17;134988;1273;22609;-80
2023/10/17 07:30:35;;;;;;;;;;;;;;;5.64;100.00;99525.02;134818;1273;254103;-81
2023/10/17 07:33:38;;;;;;;;;;;;;;;5.89;100.00;99524.83;134969;1273;25233;-79
2023/10/17 07:36:43;;;;;;;;;;;;;;;6.18;100.00;99517.96;134779;1273;23000;-79
2023/10/17 07:39:59;;;;;;;;;;;;;;;6.48;100.00;99514.83;134930;1273;24359;-79
2023/10/17 07:43:02;;;;;;;;;;;;;;;6.72;100.00;99516.77;134954;1273;22565;-79
2023/10/17 07:46:07;;;;;;;;;;;;;;;6.95;100.00;99516.42;134986;1273;22522;-77
2023/10/17 07:49:10;;;;;;;;;;;;;;;7.16;100.00;99517.91;135065;1273;22590;-79
2023/10/17 07:52:15;;;;;;;;;;;;;;;7.29;100.00;99513.55;135120;1273;22682;-81
2023/10/17 07:55:22;;;;;;;;;;;;;;;7.41;100.00;99519.31;135167;1273;26019;-79
2023/10/17 07:58:39;;;;;;;;;;;;;;;7.75;100.00;99514.59;135271;1273;22649;-81
2023/10/17 08:01:43;;;;;;;;;;;;;;;8.69;100.00;99512.29;135270;1273;22861;-80
2023/10/17 08:04:46;;;;;;;;;;;;;;;8.52;100.00;99513.34;135329;1273;24171;-81
2023/10/17 08:07:49;;;;;;;;;;;;;;;8.29;100.00;99515.36;135145;1273;22517;-81
2023/10/17 08:10:52;;;;;;;;;;;;;;;8.14;100.00;99516.95;135106;1273;22508;-81
2023/10/17 08:13:55;;;;;;;;;;;;;;;8.05;100.00;99520.14;135079;1273;22574;-80
2023/10/17 08:16:58;;;;;;;;;;;;;;;8.14;100.00;99513.49;135310;1273;22566;-80
2023/10/17 08:20:38;;;;;;;;;;;;;;;8.14;100.00;99515.75;135040;1273;25306;-79
2023/10/17 08:23:34;;;;;;;;;;;;;;;8.21;100.00;99515.30;135002;1273;25428;-79
2023/10/17 08:26:42;;;;;;;;;;;;;;;8.36;100.00;99516.29;135208;1273;22537;-81
2023/10/17 08:29:48;;;;;;;;;;;;;;;8.55;100.00;99515.33;137615;1273;22275;-82
2023/10/17 08:33:09;;;;;;;;;;;;;;;8.76;100.00;99519.11;136316;1273;25216;-79
2023/10/17 08:36:13;;;;;;;;;;;;;;;10.00;100.00;99512.34;135113;1273;25541;-79
2023/10/17 08:42:36;;;;;;;;;;;;;;;14.71;100.00;99500.86;135189;1273;22592;-77
2023/10/17 08:45:39;;;;;;;;;;;;;;;15.76;100.00;99501.34;135256;1273;22960;-76
2023/10/17 08:48:43;;;;;;;;;;;;;;;16.31;100.00;99503.66;135798;1273;22540;-77
2023/10/17 08:51:46;;;;;;;;;;;;;;;16.94;100.00;99510.44;135982;1273;25462;-73
2023/10/17 08:54:48;;;;;;;;;;;;;;;17.29;92.33;99515.95;136172;1273;22536;-76
2023/10/17 08:57:52;;;;;;;;;;;;;;;16.19;64.46;99515.07;135813;1273;22882;-78
2023/10/17 09:01:07;;;;;;;;;;;;;;;16.28;67.82;99512.08;136340;1273;22552;-77
2023/10/17 09:04:13;;;;;;;;;;;;;;;17.15;68.12;99510.71;135184;1273;24167;-78
2023/10/17 09:07:22;;;;;;;;;;;;;;;17.92;65.32;99504.89;135130;1273;22658;-77
2023/10/17 09:10:36;;;;;;;;;;;;;;;17.80;59.23;99512.89;135092;1273;23010;-78
2023/10/17 09:14:10;;;;;;;;;;;;;;;17.52;60.25;99512.69;135133;1273;22543;-78
2023/10/17 09:17:16;;;;;;;;;;;;;;;17.78;61.78;99516.42;135519;1273;22517;-78
2023/10/17 09:20:20;;;;;;;;;;;;;;;17.79;59.50;99514.84;135547;1273;22534;-78
2023/10/17 09:23:23;;;;;;;;;;;;;;;18.04;60.25;99515.02;135496;1273;22451;-79
2023/10/17 09:26:25;;;;;;;;;;;;;;;18.46;59.93;99515.57;135336;1273;22534;-78
2023/10/17 09:29:28;;;;;;;;;;;;;;;18.81;57.78;99515.06;135596;1273;23017;-78
2023/10/17 09:32:31;;;;;;;;;;;;;;;18.22;55.77;99515.23;135371;1273;24240;-78
2023/10/17 09:35:33;;;;;;;;;;;;;;;18.50;57.63;99511.30;135121;1273;22580;-77
2023/10/17 09:38:43;;;;;;;;;;;;;;;18.77;54.69;99512.13;135263;1273;23503;-78
2023/10/17 09:41:46;;;;;;;;;;;;;;;18.40;53.91;99509.98;135284;1273;23003;-78
2023/10/17 09:44:48;;;;;;;;;;;;;;;17.65;52.39;99512.61;135073;1273;22665;-82
2023/10/17 09:47:51;;;;;;;;;;;;;;;16.75;50.87;99512.05;135228;1273;25995;-81
2023/10/17 09:50:54;;;;;;;;;;;;;;;15.85;51.23;99505.04;135385;1273;22471;-81
2023/10/17 09:53:58;;;;;;;;;;;;;;;15.18;51.60;99501.84;135796;1273;22512;-78
2023/10/17 09:57:02;;;;;;;;;;;;;;;14.65;58.00;99505.76;135861;1273;22515;-78
2023/10/17 10:00:05;;;;;;;;;;;;;;;16.08;63.13;99498.16;135228;1273;22517;-80
2023/10/17 10:03:09;;;;;;;;;;;;;;;17.58;58.46;99494.86;135351;1273;22457;-79
2023/10/17 10:06:13;;;;;;;;;;;;;;;18.22;56.41;99488.10;135501;1273;22654;-78
2023/10/17 10:09:17;;;;;;;;;;;;;;;18.77;54.59;99482.31;135422;1273;23514;-78
2023/10/17 10:12:20;;;;;;;;;;;;;;;19.21;55.66;99480.56;135291;1273;24295;-76
2023/10/17 10:15:22;;;;;;;;;;;;;;;19.54;51.57;99476.08;135282;1273;22550;-77
2023/10/17 10:18:25;;;;;;;;;;;;;;;19.33;47.43;99477.77;135455;1273;24915;-80
2023/10/17 10:21:28;;;;;;;;;;;;;;;18.08;44.23;99476.73;135458;1273;22785;-80
2023/10/17 10:24:31;;;;;;;;;;;;;;;16.24;44.68;99476.25;135332;1273;22988;-79
2023/10/17 10:27:34;;;;;;;;;;;;;;;14.99;46.99;99472.30;135370;1270;24213;-78
2023/10/17 10:30:38;;;;;;;;;;;;;;;14.39;48.58;99474.93;135541;1253;22533;-81
2023/10/17 10:33:41;;;;;;;;;;;;;;;14.12;49.39;99471.92;135342;1273;22519;-82
2023/10/17 10:36:43;;;;;;;;;;;;;;;13.90;50.26;99473.31;135446;1260;26127;-82
2023/10/17 10:39:46;;;;;;;;;;;;;;;13.54;50.23;99475.58;135455;1273;25894;-81
2023/10/17 10:42:48;;;;;;;;;;;;;;;13.25;50.57;99467.07;136504;1273;25274;-81
2023/10/17 10:45:55;;;;;;;;;;;;;;;13.05;51.25;99470.46;135290;1273;22580;-82
2023/10/17 10:48:57;;;;;;;;;;;;;;;12.86;52.05;99464.45;136541;1273;23034;-82
2023/10/17 10:52:00;;;;;;;;;;;;;;;12.75;52.70;99461.67;135268;1273;22615;-79
2023/10/17 10:55:02;;;;;;;;;;;;;;;12.71;53.07;99461.29;135049;1273;22527;-85
2023/10/17 10:58:05;;;;;;;;;;;;;;;12.76;52.89;99456.98;135003;1273;22528;-83
2023/10/17 11:01:08;;;;;;;;;;;;;;;12.93;52.81;99449.67;135135;1273;26242;-82
2023/10/17 11:04:12;;;;;;;;;;;;;;;12.97;52.35;99445.19;135182;1269;23023;-83
2023/10/17 11:07:14;;;;;;;;;;;;;;;13.01;51.74;99445.45;136910;1273;23194;-82
2023/10/17 11:10:18;;;;;;;;;;;;;;;12.90;51.18;99441.96;136994;1273;23034;-82
2023/10/17 11:13:21;;;;;;;;;;;;;;;12.86;52.57;99434.05;136322;1273;24225;-80
2023/10/17 11:16:24;;;;;;;;;;;;;;;13.00;52.81;99431.78;136310;1273;22783;-81
2023/10/17 11:19:30;;;;;;;;;;;;;;;13.20;51.86;99426.45;136491;1273;22626;-81
2023/10/17 11:22:33;;;;;;;;;;;;;;;13.34;51.43;99420.32;135788;1273;22662;-80
2023/10/17 11:25:35;;;;;;;;;;;;;;;13.51;51.29;99415.05;135192;1273;24302;-82
2023/10/17 11:28:42;;;;;;;;;;;;;;;13.56;50.85;99416.50;135057;1267;22650;-82
2023/10/17 11:31:44;;;;;;;;;;;;;;;13.64;51.52;99411.85;136688;1273;22565;-81
2023/10/17 11:34:48;;;;;;;;;;;;;;;13.72;50.35;99408.23;135317;1273;25194;-78
2023/10/17 11:37:51;;;;;;;;;;;;;;;13.70;50.07;99404.55;135231;1273;26003;-81
2023/10/17 11:40:55;;;;;;;;;;;;;;;13.75;50.11;99401.61;136801;1273;22742;-79
2023/10/17 11:43:57;;;;;;;;;;;;;;;13.81;50.19;99397.29;136946;1273;25070;-81
2023/10/17 11:47:02;;;;;;;;;;;;;;;13.92;49.84;99399.34;137093;1273;22570;-80
2023/10/17 11:50:05;;;;;;;;;;;;;;;13.93;49.22;99394.09;137035;1273;22552;-80
2023/10/17 11:53:09;;;;;;;;;;;;;;;13.75;49.09;99392.35;135142;1273;22515;-80
2023/10/17 11:56:11;;;;;;;;;;;;;;;13.52;49.48;99391.11;136900;1273;22548;-80
2023/10/17 11:59:18;;;;;;;;;;;;;;;13.24;49.72;99394.17;135313;1273;22534;-80
2023/10/17 12:02:20;;;;;;;;;;;;;;;13.05;50.66;99386.61;135557;1273;22531;-80
2023/10/17 12:05:27;;;;;;;;;;;;;;;12.94;51.04;99380.69;135364;1273;22515;-82
2023/10/17 12:08:30;;;;;;;;;;;;;;;12.87;51.63;99378.52;136961;1273;23013;-80
2023/10/17 12:11:36;;;;;;;;;;;;;;;12.81;52.42;99372.34;137184;1272;23088;-82
2023/10/17 12:14:41;;;;;;;;;;;;;;;12.71;52.85;99370.99;137217;1272;22544;-81
2023/10/17 12:21:01;;;;;;;;;;;;;;;12.54;53.27;99375.87;137097;1273;22540;-81
2023/10/17 12:24:11;;;;;;;;;;;;;;;12.63;53.48;99369.52;137293;1273;23324;-81
2023/10/17 12:27:15;;;;;;;;;;;;;;;12.63;53.85;99366.73;137336;1272;22516;-83
2023/10/17 12:30:22;;;;;;;;;;;;;;;12.72;53.83;99367.35;137308;1273;23264;-82
2023/10/17 12:33:27;;;;;;;;;;;;;;;12.77;52.97;99366.70;137263;1273;23246;-80
2023/10/17 12:36:30;;;;;;;;;;;;;;;12.71;53.21;99362.79;137035;1273;22549;-81
2023/10/17 12:39:33;;;;;;;;;;;;;;;12.68;53.02;99360.32;137262;1273;22531;-79
2023/10/17 12:42:36;;;;;;;;;;;;;;;12.78;52.97;99356.93;135460;1258;22520;-80
2023/10/17 12:45:39;;;;;;;;;;;;;;;12.95;52.84;99358.70;135264;1272;22550;-80
2023/10/17 12:48:41;;;;;;;;;;;;;;;13.12;52.42;99351.56;135462;1272;22580;-79
2023/10/17 12:51:47;;;;;;;;;;;;;;;13.22;52.00;99349.94;135513;1272;23046;-80
2023/10/17 12:54:49;;;;;;;;;;;;;;;13.04;52.21;99352.69;135600;1272;24243;-81
2023/10/17 12:57:51;;;;;;;;;;;;;;;12.86;52.92;99352.48;135254;1272;22519;-83
2023/10/17 13:00:54;;;;;;;;;;;;;;;12.68;53.40;99347.58;136938;1272;22554;-83
2023/10/17 13:03:57;;;;;;;;;;;;;;;12.50;53.73;99340.54;136935;1272;23457;-82
2023/10/17 13:07:00;;;;;;;;;;;;;;;12.37;53.84;99347.55;137020;1272;22564;-82
2023/10/17 13:10:03;;;;;;;;;;;;;;;12.32;53.95;99339.11;136928;1272;22552;-80
2023/10/17 13:13:05;;;;;;;;;;;;;;;12.27;54.27;99333.46;135001;1272;22509;-82
2023/10/17 13:16:10;;;;;;;;;;;;;;;12.30;54.50;99333.50;137260;1272;22537;-82
2023/10/17 13:19:16;;;;;;;;;;;;;;;12.27;54.40;99328.56;137195;1272;23130;-83
2023/10/17 13:22:20;;;;;;;;;;;;;;;12.14;54.21;99323.32;136826;1272;22549;-83
2023/10/17 13:25:22;;;;;;;;;;;;;;;11.98;54.46;99322.04;137074;1272;22530;-84
2023/10/17 13:28:26;;;;;;;;;;;;;;;11.77;54.99;99324.36;137189;1272;22534;-81
2023/10/17 13:31:30;;;;;;;;;;;;;;;11.63;55.39;99319.77;137042;1253;22486;-84
2023/10/17 13:34:32;;;;;;;;;;;;;;;11.58;56.01;99317.08;137073;1272;23119;-82
2023/10/17 13:37:36;;;;;;;;;;;;;;;11.54;57.17;99312.30;137020;1272;22550;-84
2023/10/17 13:40:38;;;;;;;;;;;;;;;11.35;57.85;99311.83;136485;1272;22561;-84
2023/10/17 13:43:41;;;;;;;;;;;;;;;11.20;58.84;99308.06;136352;1272;22920;-84
2023/10/17 13:46:44;;;;;;;;;;;;;;;11.05;59.56;99301.72;136334;1272;22541;-84
2023/10/17 13:49:47;;;;;;;;;;;;;;;10.91;60.70;99297.65;136564;1272;25409;-84
2023/10/17 13:52:52;;;;;;;;;;;;;;;10.81;61.42;99299.38;136578;1272;22910;-83
2023/10/17 13:55:55;;;;;;;;;;;;;;;10.82;62.17;99293.83;136671;1272;22555;-84
2023/10/17 13:58:59;;;;;;;;;;;;;;;10.77;62.48;99291.48;136704;1272;22547;-83
2023/10/17 14:02:04;;;;;;;;;;;;;;;10.74;63.10;99290.73;136392;1272;22997;-85
2023/10/17 14:05:08;;;;;;;;;;;;;;;10.72;63.44;99289.98;136392;1266;24905;-85
2023/10/17 14:08:13;;;;;;;;;;;;;;;10.67;63.82;99287.45;136377;1272;22567;-84
2023/10/17 14:11:18;;;;;;;;;;;;;;;10.69;63.99;99286.29;136381;1272;22533;-84
2023/10/17 14:14:24;;;;;;;;;;;;;;;10.80;63.31;99278.83;136576;1269;22528;-85
2023/10/17 14:17:28;;;;;;;;;;;;;;;10.95;62.66;99278.91;136862;1272;23194;-83
2023/10/17 14:20:42;;;;;;;;;;;;;;;11.09;60.91;99274.45;136349;1272;22594;-82
2023/10/17 14:23:57;;;;;;;;;;;;;;;11.22;59.51;99274.66;136290;1272;22547;-83
2023/10/17 14:26:59;;;;;;;;;;;;;;;11.35;59.17;99275.60;136350;1272;22584;-83
2023/10/17 14:30:05;;;;;;;;;;;;;;;11.45;58.59;99274.70;136377;1272;22891;-84
2023/10/17 14:33:09;;;;;;;;;;;;;;;11.52;58.29;99270.09;136388;1272;22539;-84
2023/10/17 14:36:13;;;;;;;;;;;;;;;11.60;58.67;99266.73;136336;1272;22698;-84
2023/10/17 14:39:15;;;;;;;;;;;;;;;11.81;61.60;99272.96;136848;1272;24258;-81
2023/10/17 14:42:22;;;;;;;;;;;;;;;12.34;57.02;99267.40;136746;1272;22538;-82
2023/10/17 14:45:25;;;;;;;;;;;;;;;12.21;55.24;99265.15;136760;1272;23452;-83
2023/10/17 14:48:27;;;;;;;;;;;;;;;12.04;54.96;99265.10;136659;1272;22498;-82
2023/10/17 14:51:30;;;;;;;;;;;;;;;11.91;54.56;99268.23;136514;1265;22527;-83
2023/10/17 14:54:34;;;;;;;;;;;;;;;11.72;54.36;99268.81;136346;1272;22548;-83
2023/10/17 14:57:36;;;;;;;;;;;;;;;11.56;54.67;99265.09;136090;1272;22913;-82
2023/10/17 15:00:39;;;;;;;;;;;;;;;11.43;54.90;99270.48;136104;1272;22962;-82
2023/10/17 15:03:42;;;;;;;;;;;;;;;11.27;55.18;99266.02;136121;1272;22618;-83
2023/10/17 15:06:44;;;;;;;;;;;;;;;11.05;55.83;99268.45;136328;1272;25861;-81
2023/10/17 15:09:47;;;;;;;;;;;;;;;10.85;56.45;99270.02;136262;1272;22515;-83
2023/10/17 15:12:52;;;;;;;;;;;;;;;10.66;57.36;99274.05;136298;1272;22521;-83
2023/10/17 15:15:55;;;;;;;;;;;;;;;10.43;58.34;99278.47;136325;1272;22549;-82
2023/10/17 15:18:57;;;;;;;;;;;;;;;10.22;59.64;99278.20;136526;1272;22537;-82
2023/10/17 15:22:00;;;;;;;;;;;;;;;10.01;60.34;99281.92;136579;1272;22542;-82
2023/10/17 15:25:03;;;;;;;;;;;;;;;9.70;61.43;99281.42;136703;1272;22516;-81
2023/10/17 15:28:06;;;;;;;;;;;;;;;9.33;62.90;99287.66;135564;1272;24212;-84
2023/10/17 15:31:08;;;;;;;;;;;;;;;9.01;64.13;99283.58;135356;1272;22522;-84
2023/10/17 15:34:13;;;;;;;;;;;;;;;8.76;65.08;99283.98;136388;1272;22571;-81
2023/10/17 15:37:17;;;;;;;;;;;;;;;8.51;65.75;99285.21;136524;1269;22535;-81
2023/10/17 15:40:21;;;;;;;;;;;;;;;8.27;66.29;99285.04;135639;1272;22752;-84
2023/10/17 15:43:24;;;;;;;;;;;;;;;8.02;67.37;99285.71;135977;1272;22518;-84
2023/10/17 15:46:27;;;;;;;;;;;;;;;7.80;68.41;99280.88;135919;1272;23154;-84
2023/10/17 15:49:29;;;;;;;;;;;;;;;7.57;69.23;99279.14;135766;1272;24934;-82
2023/10/17 15:52:34;;;;;;;;;;;;;;;7.31;69.66;99283.01;135811;1272;22545;-82
2023/10/17 15:55:37;;;;;;;;;;;;;;;7.08;70.69;99277.23;135701;1272;22656;-82
2023/10/17 15:58:39;;;;;;;;;;;;;;;6.91;71.68;99274.06;135865;1272;22624;-83
2023/10/17 16:01:42;;;;;;;;;;;;;;;6.75;72.61;99278.20;136014;1272;25545;-86
2023/10/17 16:04:45;;;;;;;;;;;;;;;6.60;73.51;99276.98;135880;1272;22541;-85
2023/10/17 16:07:53;;;;;;;;;;;;;;;6.46;74.30;99274.08;135843;1272;22530;-86
2023/10/17 16:10:56;;;;;;;;;;;;;;;6.33;74.84;99275.04;135785;1272;23368;-85
2023/10/17 16:13:59;;;;;;;;;;;;;;;6.24;75.44;99282.98;135831;1272;22536;-84
2023/10/17 16:17:02;;;;;;;;;;;;;;;6.18;76.20;99280.51;135892;1272;24742;-84
2023/10/17 16:20:08;;;;;;;;;;;;;;;6.10;76.65;99280.74;135815;1272;24187;-84
2023/10/17 16:23:11;;;;;;;;;;;;;;;5.99;77.07;99282.23;135784;1272;22558;-83
2023/10/17 16:26:13;;;;;;;;;;;;;;;5.89;77.43;99283.01;136053;1272;22600;-83
2023/10/17 16:29:16;;;;;;;;;;;;;;;5.83;78.14;99281.05;136048;1272;22583;-83
2023/10/17 16:32:19;;;;;;;;;;;;;;;5.79;78.76;99285.40;135977;1272;23583;-84
2023/10/17 16:35:21;;;;;;;;;;;;;;;5.76;79.08;99288.08;136033;1272;22498;-84
2023/10/17 16:38:24;;;;;;;;;;;;;;;5.77;79.78;99289.12;135991;1272;22521;-83
2023/10/17 16:41:27;;;;;;;;;;;;;;;5.76;80.16;99287.20;135902;1272;22525;-83
2023/10/17 16:44:30;;;;;;;;;;;;;;;5.76;80.51;99289.96;136016;1272;23054;-84
2023/10/17 16:47:34;;;;;;;;;;;;;;;5.80;81.16;99289.04;135719;1272;22518;-84
2023/10/17 16:50:39;;;;;;;;;;;;;;;5.85;81.48;99282.67;135751;1272;22519;-82
2023/10/17 16:53:42;;;;;;;;;;;;;;;5.86;81.53;99284.11;135673;1272;24214;-85
2023/10/17 16:56:45;;;;;;;;;;;;;;;5.87;82.14;99285.17;135833;1272;22540;-85
2023/10/17 16:59:48;;;;;;;;;;;;;;;5.89;82.49;99283.54;136179;1272;22522;-82
2023/10/17 17:02:51;;;;;;;;;;;;;;;5.90;82.60;99282.39;136203;1272;22499;-84
2023/10/17 17:05:55;;;;;;;;;;;;;;;5.91;83.23;99281.04;136164;1272;22515;-84
2023/10/17 17:08:57;;;;;;;;;;;;;;;5.96;83.61;99279.84;136266;1272;22533;-83
2023/10/17 17:12:00;;;;;;;;;;;;;;;5.98;83.81;99278.55;136318;1272;22535;-83
2023/10/17 17:15:03;;;;;;;;;;;;;;;5.98;83.89;99275.61;136295;1272;22575;-84
2023/10/17 17:18:05;;;;;;;;;;;;;;;6.01;83.98;99278.33;136312;1272;22924;-84
2023/10/17 17:21:08;;;;;;;;;;;;;;;6.06;84.18;99283.53;136245;1272;22558;-83